sensor_id;sensor_type;location;lat;lon;timestamp;pressure;altitude;pressure_sealevel;temperature;humidity
41383;BME280;27971;53.902;9.118;2022-11-10T00:05:38;101317.0;;;17.4;31.77
41383;BME280;27971;53.902;9.118;2022-11-10T00:07:41;101318.0;;;17.79;30.63
41383;BME280;27971;53.902;9.118;2022-11-10T00:09:43;101320.0;;;18.11;29.88
41383;BME280;27971;53.902;9.118;2022-11-10T00:11:46;101321.0;;;19.0;28.91
41383;BME280;27971;53.902;9.118;2022-11-10T00:13:49;101324.0;;;19.44;28.77
41383;BME280;27971;53.902;9.118;2022-11-10T00:15:53;101321.0;;;19.35;28.78
41383;BME280;27971;53.902;9.118;2022-11-10T00:17:56;101323.0;;;19.32;28.79
41383;BME280;27971;53.902;9.118;2022-11-10T00:19:59;101328.0;;;19.77;28.38
41383;BME280;27971;53.902;9.118;2022-11-10T00:22:02;101332.0;;;19.63;28.41
41383;BME280;27971;53.902;9.118;2022-11-10T00:24:05;101334.0;;;19.27;28.76
41383;BME280;27971;53.902;9.118;2022-11-10T00:26:13;101336.0;;;19.63;28.43
41383;BME280;27971;53.902;9.118;2022-11-10T00:28:11;101335.0;;;19.49;28.51
41383;BME280;27971;53.902;9.118;2022-11-10T00:30:14;101335.0;;;19.43;28.55
41383;BME280;27971;53.902;9.118;2022-11-10T00:32:18;101337.0;;;19.32;28.63
41383;BME280;27971;53.902;9.118;2022-11-10T00:34:21;101339.0;;;19.47;28.5
41383;BME280;27971;53.902;9.118;2022-11-10T00:36:24;101343.0;;;19.3;28.61
41383;BME280;27971;53.902;9.118;2022-11-10T00:38:27;101347.0;;;19.47;28.44
41383;BME280;27971;53.902;9.118;2022-11-10T00:40:31;101348.0;;;19.6;28.35
41383;BME280;27971;53.902;9.118;2022-11-10T00:42:34;101352.0;;;19.2;28.77
41383;BME280;27971;53.902;9.118;2022-11-10T00:44:37;101355.0;;;19.33;28.6
41383;BME280;27971;53.902;9.118;2022-11-10T00:46:40;101356.0;;;18.97;28.9
41383;BME280;27971;53.902;9.118;2022-11-10T00:48:43;101357.0;;;19.02;28.83
41383;BME280;27971;53.902;9.118;2022-11-10T00:50:45;101360.0;;;19.42;28.48
41383;BME280;27971;53.902;9.118;2022-11-10T00:52:48;101363.0;;;19.3;28.54
41383;BME280;27971;53.902;9.118;2022-11-10T00:54:51;101361.0;;;19.34;28.54
41383;BME280;27971;53.902;9.118;2022-11-10T00:56:54;101366.0;;;19.51;28.39
41383;BME280;27971;53.902;9.118;2022-11-10T00:58:57;101371.0;;;19.28;28.46
41383;BME280;27971;53.902;9.118;2022-11-10T01:01:00;101375.0;;;19.29;28.52
41383;BME280;27971;53.902;9.118;2022-11-10T01:03:03;101381.0;;;18.85;28.86
41383;BME280;27971;53.902;9.118;2022-11-10T01:05:07;101385.0;;;19.23;28.51
41383;BME280;27971;53.902;9.118;2022-11-10T01:07:10;101389.0;;;18.87;28.74
41383;BME280;27971;53.902;9.118;2022-11-10T01:09:12;101388.0;;;18.79;28.86
41383;BME280;27971;53.902;9.118;2022-11-10T01:11:18;101389.0;;;18.73;28.83
41383;BME280;27971;53.902;9.118;2022-11-10T01:13:18;101390.0;;;19.09;28.56
41383;BME280;27971;53.902;9.118;2022-11-10T01:15:22;101396.0;;;19.19;28.44
41383;BME280;27971;53.902;9.118;2022-11-10T01:17:24;101404.0;;;19.08;28.58
41383;BME280;27971;53.902;9.118;2022-11-10T01:19:28;101410.0;;;18.91;28.67
41383;BME280;27971;53.902;9.118;2022-11-10T01:21:30;101411.0;;;19.25;28.42
41383;BME280;27971;53.902;9.118;2022-11-10T01:23:33;101410.0;;;19.32;28.35
41383;BME280;27971;53.902;9.118;2022-11-10T01:25:35;101412.0;;;19.21;28.39
41383;BME280;27971;53.902;9.118;2022-11-10T01:27:38;101416.0;;;19.16;28.39
41383;BME280;27971;53.902;9.118;2022-11-10T01:29:41;101418.0;;;18.86;28.63
41383;BME280;27971;53.902;9.118;2022-11-10T01:31:44;101419.0;;;19.19;28.38
41383;BME280;27971;53.902;9.118;2022-11-10T01:33:48;101419.0;;;18.84;28.66
41383;BME280;27971;53.902;9.118;2022-11-10T01:35:51;101420.0;;;18.62;28.86
41383;BME280;27971;53.902;9.118;2022-11-10T01:37:54;101428.0;;;18.99;28.64
41383;BME280;27971;53.902;9.118;2022-11-10T01:39:57;101432.0;;;18.6;28.88
41383;BME280;27971;53.902;9.118;2022-11-10T01:42:00;101433.0;;;18.81;28.76
41383;BME280;27971;53.902;9.118;2022-11-10T01:44:21;101439.0;;;18.97;28.62
41383;BME280;27971;53.902;9.118;2022-11-10T01:46:07;101440.0;;;18.73;28.75
41383;BME280;27971;53.902;9.118;2022-11-10T01:48:12;101443.0;;;18.65;28.86
41383;BME280;27971;53.902;9.118;2022-11-10T01:50:12;101443.0;;;19.01;28.65
41383;BME280;27971;53.902;9.118;2022-11-10T01:52:15;101448.0;;;18.89;28.68
41383;BME280;27971;53.902;9.118;2022-11-10T01:54:21;101452.0;;;18.78;28.74
41383;BME280;27971;53.902;9.118;2022-11-10T01:56:22;101457.0;;;18.74;28.75
41383;BME280;27971;53.902;9.118;2022-11-10T01:58:29;101459.0;;;18.48;28.94
41383;BME280;27971;53.902;9.118;2022-11-10T02:00:27;101463.0;;;19.01;28.51
41383;BME280;27971;53.902;9.118;2022-11-10T02:02:35;101466.0;;;18.8;28.71
41383;BME280;27971;53.902;9.118;2022-11-10T02:04:33;101463.0;;;18.71;28.75
41383;BME280;27971;53.902;9.118;2022-11-10T02:06:37;101459.0;;;19.94;28.83
41383;BME280;27971;53.902;9.118;2022-11-10T02:08:38;101462.0;;;22.75;29.27
41383;BME280;27971;53.902;9.118;2022-11-10T02:10:41;101465.0;;;22.22;30.35
41383;BME280;27971;53.902;9.118;2022-11-10T02:12:44;101466.0;;;21.83;31.31
41383;BME280;27971;53.902;9.118;2022-11-10T02:14:46;101465.0;;;21.8;31.69
41383;BME280;27971;53.902;9.118;2022-11-10T02:16:49;101463.0;;;21.58;31.99
41383;BME280;27971;53.902;9.118;2022-11-10T02:18:52;101470.0;;;21.56;32.23
41383;BME280;27971;53.902;9.118;2022-11-10T02:20:54;101473.0;;;21.46;32.47
41383;BME280;27971;53.902;9.118;2022-11-10T02:22:57;101472.0;;;21.42;32.68
41383;BME280;27971;53.902;9.118;2022-11-10T02:24:59;101474.0;;;21.35;32.71
41383;BME280;27971;53.902;9.118;2022-11-10T02:27:02;101478.0;;;21.18;32.91
41383;BME280;27971;53.902;9.118;2022-11-10T02:29:04;101479.0;;;21.47;32.71
41383;BME280;27971;53.902;9.118;2022-11-10T02:31:06;101482.0;;;21.45;32.67
41383;BME280;27971;53.902;9.118;2022-11-10T02:33:09;101487.0;;;21.22;32.84
41383;BME280;27971;53.902;9.118;2022-11-10T02:35:11;101483.0;;;21.3;32.87
41383;BME280;27971;53.902;9.118;2022-11-10T02:37:13;101479.0;;;21.37;32.77
41383;BME280;27971;53.902;9.118;2022-11-10T02:39:16;101476.0;;;21.17;32.94
41383;BME280;27971;53.902;9.118;2022-11-10T02:41:18;101476.0;;;21.21;32.82
41383;BME280;27971;53.902;9.118;2022-11-10T02:43:21;101477.0;;;21.38;32.66
41383;BME280;27971;53.902;9.118;2022-11-10T02:45:24;101477.0;;;21.51;32.52
41383;BME280;27971;53.902;9.118;2022-11-10T02:47:26;101481.0;;;21.57;32.39
41383;BME280;27971;53.902;9.118;2022-11-10T02:49:28;101487.0;;;21.62;32.42
41383;BME280;27971;53.902;9.118;2022-11-10T02:51:31;101492.0;;;21.6;32.39
41383;BME280;27971;53.902;9.118;2022-11-10T02:53:34;101493.0;;;21.39;32.6
41383;BME280;27971;53.902;9.118;2022-11-10T02:55:36;101500.0;;;21.41;32.61
41383;BME280;27971;53.902;9.118;2022-11-10T02:57:39;101511.0;;;21.46;32.56
41383;BME280;27971;53.902;9.118;2022-11-10T02:59:41;101518.0;;;21.48;32.52
41383;BME280;27971;53.902;9.118;2022-11-10T03:01:43;101519.0;;;21.45;32.54
41383;BME280;27971;53.902;9.118;2022-11-10T03:03:45;101519.0;;;21.44;32.59
41383;BME280;27971;53.902;9.118;2022-11-10T03:05:48;101519.0;;;21.43;32.62
41383;BME280;27971;53.902;9.118;2022-11-10T03:07:52;101517.0;;;21.3;32.72
41383;BME280;27971;53.902;9.118;2022-11-10T03:09:53;101518.0;;;21.18;32.87
41383;BME280;27971;53.902;9.118;2022-11-10T03:11:55;101519.0;;;21.19;32.91
41383;BME280;27971;53.902;9.118;2022-11-10T03:13:58;101520.0;;;21.11;32.98
41383;BME280;27971;53.902;9.118;2022-11-10T03:16:00;101521.0;;;21.06;32.98
41383;BME280;27971;53.902;9.118;2022-11-10T03:18:03;101523.0;;;21.01;33.06
41383;BME280;27971;53.902;9.118;2022-11-10T03:20:05;101524.0;;;20.94;33.16
41383;BME280;27971;53.902;9.118;2022-11-10T03:22:07;101525.0;;;21.08;33.01
41383;BME280;27971;53.902;9.118;2022-11-10T03:24:10;101527.0;;;21.14;32.98
41383;BME280;27971;53.902;9.118;2022-11-10T03:26:12;101531.0;;;21.05;33.03
41383;BME280;27971;53.902;9.118;2022-11-10T03:28:15;101533.0;;;21.04;33.05
41383;BME280;27971;53.902;9.118;2022-11-10T03:30:17;101538.0;;;21.26;32.85
41383;BME280;27971;53.902;9.118;2022-11-10T03:32:19;101540.0;;;21.13;32.98
41383;BME280;27971;53.902;9.118;2022-11-10T03:34:22;101543.0;;;21.17;32.89
41383;BME280;27971;53.902;9.118;2022-11-10T03:36:25;101544.0;;;21.11;32.9
41383;BME280;27971;53.902;9.118;2022-11-10T03:38:27;101545.0;;;21.17;32.88
41383;BME280;27971;53.902;9.118;2022-11-10T03:40:29;101547.0;;;21.24;32.81
41383;BME280;27971;53.902;9.118;2022-11-10T03:42:32;101546.0;;;21.12;32.93
41383;BME280;27971;53.902;9.118;2022-11-10T03:44:34;101548.0;;;21.2;32.82
41383;BME280;27971;53.902;9.118;2022-11-10T03:46:37;101553.0;;;21.3;32.62
41383;BME280;27971;53.902;9.118;2022-11-10T03:48:39;101558.0;;;21.22;32.72
41383;BME280;27971;53.902;9.118;2022-11-10T03:50:41;101563.0;;;21.31;32.59
41383;BME280;27971;53.902;9.118;2022-11-10T03:52:44;101566.0;;;21.24;32.75
41383;BME280;27971;53.902;9.118;2022-11-10T03:54:47;101569.0;;;21.25;32.68
41383;BME280;27971;53.902;9.118;2022-11-10T03:56:49;101569.0;;;21.29;32.62
41383;BME280;27971;53.902;9.118;2022-11-10T03:58:51;101568.0;;;21.22;32.73
41383;BME280;27971;53.902;9.118;2022-11-10T04:00:54;101573.0;;;21.23;32.7
41383;BME280;27971;53.902;9.118;2022-11-10T04:02:57;101582.0;;;21.07;32.79
41383;BME280;27971;53.902;9.118;2022-11-10T04:04:59;101589.0;;;21.27;32.64
41383;BME280;27971;53.902;9.118;2022-11-10T04:07:02;101590.0;;;21.22;32.68
41383;BME280;27971;53.902;9.118;2022-11-10T04:09:06;101591.0;;;21.28;32.62
41383;BME280;27971;53.902;9.118;2022-11-10T04:11:07;101594.0;;;21.36;32.51
41383;BME280;27971;53.902;9.118;2022-11-10T04:13:09;101595.0;;;21.15;32.75
41383;BME280;27971;53.902;9.118;2022-11-10T04:15:12;101596.0;;;21.26;32.69
41383;BME280;27971;53.902;9.118;2022-11-10T04:17:15;101597.0;;;21.15;32.79
41383;BME280;27971;53.902;9.118;2022-11-10T04:19:17;101598.0;;;20.73;33.17
41383;BME280;27971;53.902;9.118;2022-11-10T04:21:20;101599.0;;;20.73;33.22
41383;BME280;27971;53.902;9.118;2022-11-10T04:23:23;101599.0;;;21.0;32.93
41383;BME280;27971;53.902;9.118;2022-11-10T04:25:25;101597.0;;;21.13;32.81
41383;BME280;27971;53.902;9.118;2022-11-10T04:27:28;101601.0;;;21.25;32.66
41383;BME280;27971;53.902;9.118;2022-11-10T04:29:30;101614.0;;;21.32;32.57
41383;BME280;27971;53.902;9.118;2022-11-10T04:31:33;101618.0;;;21.38;32.5
41383;BME280;27971;53.902;9.118;2022-11-10T04:33:36;101616.0;;;21.36;32.49
41383;BME280;27971;53.902;9.118;2022-11-10T04:35:38;101611.0;;;21.38;32.5
41383;BME280;27971;53.902;9.118;2022-11-10T04:37:40;101608.0;;;21.23;32.58
41383;BME280;27971;53.902;9.118;2022-11-10T04:39:43;101614.0;;;21.27;32.55
41383;BME280;27971;53.902;9.118;2022-11-10T04:41:45;101622.0;;;21.31;32.49
41383;BME280;27971;53.902;9.118;2022-11-10T04:43:48;101625.0;;;21.4;32.45
41383;BME280;27971;53.902;9.118;2022-11-10T04:45:50;101627.0;;;21.17;32.62
41383;BME280;27971;53.902;9.118;2022-11-10T04:47:53;101628.0;;;21.17;32.62
41383;BME280;27971;53.902;9.118;2022-11-10T04:49:55;101631.0;;;21.0;32.78
41383;BME280;27971;53.902;9.118;2022-11-10T04:51:58;101632.0;;;21.0;32.82
41383;BME280;27971;53.902;9.118;2022-11-10T04:54:01;101632.0;;;20.95;32.87
41383;BME280;27971;53.902;9.118;2022-11-10T04:56:04;101630.0;;;20.98;32.91
41383;BME280;27971;53.902;9.118;2022-11-10T04:58:07;101632.0;;;21.07;32.8
41383;BME280;27971;53.902;9.118;2022-11-10T05:00:11;101634.0;;;20.98;32.89
41383;BME280;27971;53.902;9.118;2022-11-10T05:02:12;101637.0;;;21.25;32.65
41383;BME280;27971;53.902;9.118;2022-11-10T05:04:15;101641.0;;;21.04;32.76
41383;BME280;27971;53.902;9.118;2022-11-10T05:06:17;101650.0;;;21.02;32.79
41383;BME280;27971;53.902;9.118;2022-11-10T05:08:20;101653.0;;;21.06;32.76
41383;BME280;27971;53.902;9.118;2022-11-10T05:10:22;101656.0;;;21.0;32.79
41383;BME280;27971;53.902;9.118;2022-11-10T05:12:25;101656.0;;;20.93;32.87
41383;BME280;27971;53.902;9.118;2022-11-10T05:14:28;101658.0;;;21.02;32.86
41383;BME280;27971;53.902;9.118;2022-11-10T05:16:31;101659.0;;;20.98;32.83
41383;BME280;27971;53.902;9.118;2022-11-10T05:18:34;101657.0;;;20.9;32.97
41383;BME280;27971;53.902;9.118;2022-11-10T05:20:37;101658.0;;;20.87;32.96
41383;BME280;27971;53.902;9.118;2022-11-10T05:22:39;101661.0;;;20.89;32.97
41383;BME280;27971;53.902;9.118;2022-11-10T05:24:42;101663.0;;;20.8;33.13
41383;BME280;27971;53.902;9.118;2022-11-10T05:26:45;101664.0;;;20.88;32.94
41383;BME280;27971;53.902;9.118;2022-11-10T05:28:47;101667.0;;;21.0;32.93
41383;BME280;27971;53.902;9.118;2022-11-10T05:30:50;101669.0;;;21.03;32.7
41383;BME280;27971;53.902;9.118;2022-11-10T05:32:53;101672.0;;;21.19;32.62
41383;BME280;27971;53.902;9.118;2022-11-10T05:34:56;101672.0;;;21.32;32.52
41383;BME280;27971;53.902;9.118;2022-11-10T05:36:58;101675.0;;;21.11;32.7
41383;BME280;27971;53.902;9.118;2022-11-10T05:39:01;101679.0;;;21.61;32.29
41383;BME280;27971;53.902;9.118;2022-11-10T05:41:03;101678.0;;;22.18;31.82
41383;BME280;27971;53.902;9.118;2022-11-10T05:43:05;101680.0;;;21.53;32.63
41383;BME280;27971;53.902;9.118;2022-11-10T05:45:09;101681.0;;;21.4;32.89
41383;BME280;27971;53.902;9.118;2022-11-10T05:47:10;101685.0;;;21.55;32.77
41383;BME280;27971;53.902;9.118;2022-11-10T05:49:13;101691.0;;;21.38;32.95
41383;BME280;27971;53.902;9.118;2022-11-10T05:51:15;101694.0;;;21.61;32.73
41383;BME280;27971;53.902;9.118;2022-11-10T05:53:18;101698.0;;;21.69;32.59
41383;BME280;27971;53.902;9.118;2022-11-10T05:55:22;101699.0;;;21.58;32.72
41383;BME280;27971;53.902;9.118;2022-11-10T05:57:23;101699.0;;;21.66;32.68
41383;BME280;27971;53.902;9.118;2022-11-10T05:59:26;101702.0;;;21.75;32.57
41383;BME280;27971;53.902;9.118;2022-11-10T06:01:28;101703.0;;;21.63;32.7
41383;BME280;27971;53.902;9.118;2022-11-10T06:03:32;101707.0;;;22.13;32.22
41383;BME280;27971;53.902;9.118;2022-11-10T06:05:35;101712.0;;;21.94;32.29
41383;BME280;27971;53.902;9.118;2022-11-10T06:07:37;101719.0;;;21.78;32.53
41383;BME280;27971;53.902;9.118;2022-11-10T06:09:39;101723.0;;;21.52;32.86
41383;BME280;27971;53.902;9.118;2022-11-10T06:11:42;101721.0;;;20.49;33.94
41383;BME280;27971;53.902;9.118;2022-11-10T06:13:45;101719.0;;;21.37;33.05
41383;BME280;27971;53.902;9.118;2022-11-10T06:15:47;101725.0;;;21.72;32.52
41383;BME280;27971;53.902;9.118;2022-11-10T06:17:50;101730.0;;;22.06;32.04
41383;BME280;27971;53.902;9.118;2022-11-10T06:19:53;101737.0;;;22.14;31.75
41383;BME280;27971;53.902;9.118;2022-11-10T06:21:55;101743.0;;;22.13;31.55
41383;BME280;27971;53.902;9.118;2022-11-10T06:23:58;101747.0;;;22.29;31.26
41383;BME280;27971;53.902;9.118;2022-11-10T06:26:00;101752.0;;;22.55;30.91
41383;BME280;27971;53.902;9.118;2022-11-10T06:28:04;101756.0;;;22.8;30.47
41383;BME280;27971;53.902;9.118;2022-11-10T06:30:07;101755.0;;;22.77;30.2
41383;BME280;27971;53.902;9.118;2022-11-10T06:32:08;101759.0;;;22.9;29.93
41383;BME280;27971;53.902;9.118;2022-11-10T06:34:10;101765.0;;;22.89;29.88
41383;BME280;27971;53.902;9.118;2022-11-10T06:36:13;101772.0;;;23.14;29.62
41383;BME280;27971;53.902;9.118;2022-11-10T06:38:16;101783.0;;;23.18;29.56
41383;BME280;27971;53.902;9.118;2022-11-10T06:40:18;101790.0;;;23.05;29.58
41383;BME280;27971;53.902;9.118;2022-11-10T06:42:20;101798.0;;;23.25;29.42
41383;BME280;27971;53.902;9.118;2022-11-10T06:44:23;101802.0;;;23.22;29.38
41383;BME280;27971;53.902;9.118;2022-11-10T06:46:25;101809.0;;;23.37;29.14
41383;BME280;27971;53.902;9.118;2022-11-10T06:48:28;101813.0;;;23.45;28.93
41383;BME280;27971;53.902;9.118;2022-11-10T06:50:31;101814.0;;;23.5;28.81
41383;BME280;27971;53.902;9.118;2022-11-10T06:52:34;101818.0;;;23.43;28.74
41383;BME280;27971;53.902;9.118;2022-11-10T06:54:36;101820.0;;;23.58;28.59
41383;BME280;27971;53.902;9.118;2022-11-10T06:56:39;101824.0;;;23.73;28.34
41383;BME280;27971;53.902;9.118;2022-11-10T06:58:41;101824.0;;;23.93;28.15
41383;BME280;27971;53.902;9.118;2022-11-10T07:00:44;101834.0;;;22.98;28.93
41383;BME280;27971;53.902;9.118;2022-11-10T07:02:47;101838.0;;;23.28;28.75
41383;BME280;27971;53.902;9.118;2022-11-10T07:04:49;101837.0;;;23.34;28.7
41383;BME280;27971;53.902;9.118;2022-11-10T07:06:52;101840.0;;;22.74;29.28
41383;BME280;27971;53.902;9.118;2022-11-10T07:08:54;101838.0;;;22.94;29.05
41383;BME280;27971;53.902;9.118;2022-11-10T07:10:57;101834.0;;;22.89;29.03
41383;BME280;27971;53.902;9.118;2022-11-10T07:13:01;101834.0;;;22.36;29.41
41383;BME280;27971;53.902;9.118;2022-11-10T07:15:03;101834.0;;;22.4;29.27
41383;BME280;27971;53.902;9.118;2022-11-10T07:17:06;101837.0;;;22.94;28.71
41383;BME280;27971;53.902;9.118;2022-11-10T07:19:08;101843.0;;;23.73;27.99
41383;BME280;27971;53.902;9.118;2022-11-10T07:21:10;101858.0;;;22.36;29.16
41383;BME280;27971;53.902;9.118;2022-11-10T07:23:13;101865.0;;;21.87;29.57
41383;BME280;27971;53.902;9.118;2022-11-10T07:25:15;101871.0;;;22.5;29.0
41383;BME280;27971;53.902;9.118;2022-11-10T07:27:17;101871.0;;;22.42;29.07
41383;BME280;27971;53.902;9.118;2022-11-10T07:29:20;101866.0;;;23.03;28.52
41383;BME280;27971;53.902;9.118;2022-11-10T07:31:22;101867.0;;;22.43;28.9
41383;BME280;27971;53.902;9.118;2022-11-10T07:33:25;101868.0;;;22.67;28.64
41383;BME280;27971;53.902;9.118;2022-11-10T07:35:28;101876.0;;;22.03;29.23
41383;BME280;27971;53.902;9.118;2022-11-10T07:37:30;101883.0;;;22.11;29.21
41383;BME280;27971;53.902;9.118;2022-11-10T07:39:33;101886.0;;;22.73;28.51
41383;BME280;27971;53.902;9.118;2022-11-10T07:41:35;101890.0;;;22.71;28.43
41383;BME280;27971;53.902;9.118;2022-11-10T07:43:38;101892.0;;;22.56;28.45
41383;BME280;27971;53.902;9.118;2022-11-10T07:45:41;101894.0;;;23.03;28.11
41383;BME280;27971;53.902;9.118;2022-11-10T07:47:43;101897.0;;;22.44;28.64
41383;BME280;27971;53.902;9.118;2022-11-10T07:49:46;101895.0;;;22.9;28.3
41383;BME280;27971;53.902;9.118;2022-11-10T07:51:48;101893.0;;;23.09;28.07
41383;BME280;27971;53.902;9.118;2022-11-10T07:53:51;101888.0;;;23.61;27.76
41383;BME280;27971;53.902;9.118;2022-11-10T07:55:53;101888.0;;;22.24;28.96
41383;BME280;27971;53.902;9.118;2022-11-10T07:57:57;101882.0;;;22.49;28.72
41383;BME280;27971;53.902;9.118;2022-11-10T08:00:00;101875.0;;;22.13;29.11
41383;BME280;27971;53.902;9.118;2022-11-10T08:02:02;101869.0;;;23.26;28.16
41383;BME280;27971;53.902;9.118;2022-11-10T08:04:05;101867.0;;;22.87;28.5
41383;BME280;27971;53.902;9.118;2022-11-10T08:06:07;101870.0;;;23.0;28.5
41383;BME280;27971;53.902;9.118;2022-11-10T08:08:10;101874.0;;;23.43;28.15
41383;BME280;27971;53.902;9.118;2022-11-10T08:10:12;101876.0;;;23.92;27.68
41383;BME280;27971;53.902;9.118;2022-11-10T08:12:15;101883.0;;;23.2;28.25
41383;BME280;27971;53.902;9.118;2022-11-10T08:14:17;101887.0;;;24.05;27.61
41383;BME280;27971;53.902;9.118;2022-11-10T08:16:20;101893.0;;;24.52;26.95
41383;BME280;27971;53.902;9.118;2022-11-10T08:18:22;101897.0;;;24.42;27.1
41383;BME280;27971;53.902;9.118;2022-11-10T08:20:25;101902.0;;;24.34;27.21
41383;BME280;27971;53.902;9.118;2022-11-10T08:22:27;101907.0;;;24.43;27.16
41383;BME280;27971;53.902;9.118;2022-11-10T08:24:31;101914.0;;;24.47;27.14
41383;BME280;27971;53.902;9.118;2022-11-10T08:26:33;101918.0;;;23.02;28.38
41383;BME280;27971;53.902;9.118;2022-11-10T08:28:35;101921.0;;;22.12;29.24
41383;BME280;27971;53.902;9.118;2022-11-10T08:30:39;101926.0;;;23.65;28.01
41383;BME280;27971;53.902;9.118;2022-11-10T08:32:41;101931.0;;;24.09;27.74
41383;BME280;27971;53.902;9.118;2022-11-10T08:34:43;101930.0;;;24.22;27.56
41383;BME280;27971;53.902;9.118;2022-11-10T08:36:46;101928.0;;;24.36;27.51
41383;BME280;27971;53.902;9.118;2022-11-10T08:38:48;101930.0;;;23.4;28.28
41383;BME280;27971;53.902;9.118;2022-11-10T08:40:55;101932.0;;;23.5;28.25
41383;BME280;27971;53.902;9.118;2022-11-10T08:42:59;101936.0;;;23.7;28.1
41383;BME280;27971;53.902;9.118;2022-11-10T08:44:57;101935.0;;;23.34;28.45
41383;BME280;27971;53.902;9.118;2022-11-10T08:47:00;101938.0;;;22.58;29.05
41383;BME280;27971;53.902;9.118;2022-11-10T08:49:02;101940.0;;;23.19;28.45
41383;BME280;27971;53.902;9.118;2022-11-10T08:51:04;101941.0;;;22.86;28.69
41383;BME280;27971;53.902;9.118;2022-11-10T08:53:10;101943.0;;;22.93;28.74
41383;BME280;27971;53.902;9.118;2022-11-10T08:55:09;101946.0;;;23.47;28.21
41383;BME280;27971;53.902;9.118;2022-11-10T08:57:12;101947.0;;;22.91;28.7
41383;BME280;27971;53.902;9.118;2022-11-10T08:59:14;101948.0;;;22.75;28.78
41383;BME280;27971;53.902;9.118;2022-11-10T09:01:17;101948.0;;;23.94;27.62
41383;BME280;27971;53.902;9.118;2022-11-10T09:03:20;101948.0;;;24.96;26.68
41383;BME280;27971;53.902;9.118;2022-11-10T09:05:22;101947.0;;;24.8;26.66
41383;BME280;27971;53.902;9.118;2022-11-10T09:07:25;101947.0;;;25.02;26.47
41383;BME280;27971;53.902;9.118;2022-11-10T09:09:27;101943.0;;;25.29;26.19
41383;BME280;27971;53.902;9.118;2022-11-10T09:11:30;101941.0;;;25.16;26.38
41383;BME280;27971;53.902;9.118;2022-11-10T09:13:32;101945.0;;;24.64;26.78
41383;BME280;27971;53.902;9.118;2022-11-10T09:15:35;101945.0;;;24.82;26.65
41383;BME280;27971;53.902;9.118;2022-11-10T09:17:39;101946.0;;;24.05;27.28
41383;BME280;27971;53.902;9.118;2022-11-10T09:19:40;101947.0;;;23.37;27.9
41383;BME280;27971;53.902;9.118;2022-11-10T09:21:43;101948.0;;;23.84;27.73
41383;BME280;27971;53.902;9.118;2022-11-10T09:23:45;101950.0;;;24.45;27.19
41383;BME280;27971;53.902;9.118;2022-11-10T09:25:49;101958.0;;;23.02;28.45
41383;BME280;27971;53.902;9.118;2022-11-10T09:27:51;101963.0;;;22.94;28.59
41383;BME280;27971;53.902;9.118;2022-11-10T09:29:53;101968.0;;;22.64;28.78
41383;BME280;27971;53.902;9.118;2022-11-10T09:31:56;101971.0;;;23.5;28.05
41383;BME280;27971;53.902;9.118;2022-11-10T09:33:58;101976.0;;;24.36;27.15
41383;BME280;27971;53.902;9.118;2022-11-10T09:36:01;101976.0;;;23.67;27.68
41383;BME280;27971;53.902;9.118;2022-11-10T09:38:03;101978.0;;;22.63;28.7
41383;BME280;27971;53.902;9.118;2022-11-10T09:40:14;101980.0;;;22.88;28.48
41383;BME280;27971;53.902;9.118;2022-11-10T09:42:24;101985.0;;;22.59;28.82
41383;BME280;27971;53.902;9.118;2022-11-10T09:44:16;101990.0;;;22.89;28.73
41383;BME280;27971;53.902;9.118;2022-11-10T09:46:17;101997.0;;;23.34;28.25
41383;BME280;27971;53.902;9.118;2022-11-10T09:48:23;102002.0;;;22.69;28.74
41383;BME280;27971;53.902;9.118;2022-11-10T09:50:28;102006.0;;;22.33;29.1
41383;BME280;27971;53.902;9.118;2022-11-10T09:52:24;102010.0;;;22.5;28.91
41383;BME280;27971;53.902;9.118;2022-11-10T09:54:33;102011.0;;;22.58;28.8
41383;BME280;27971;53.902;9.118;2022-11-10T09:56:30;102014.0;;;22.68;28.76
41383;BME280;27971;53.902;9.118;2022-11-10T09:58:37;102015.0;;;22.81;28.56
41383;BME280;27971;53.902;9.118;2022-11-10T10:00:34;102017.0;;;22.4;28.97
41383;BME280;27971;53.902;9.118;2022-11-10T10:02:39;102021.0;;;22.83;28.48
41383;BME280;27971;53.902;9.118;2022-11-10T10:04:55;102028.0;;;22.31;29.0
41383;BME280;27971;53.902;9.118;2022-11-10T10:06:50;102027.0;;;22.16;29.29
41383;BME280;27971;53.902;9.118;2022-11-10T10:08:57;102029.0;;;21.96;29.49
41383;BME280;27971;53.902;9.118;2022-11-10T10:10:53;102027.0;;;22.72;28.85
41383;BME280;27971;53.902;9.118;2022-11-10T10:13:02;102030.0;;;21.95;29.46
41383;BME280;27971;53.902;9.118;2022-11-10T10:15:08;102031.0;;;22.02;29.52
41383;BME280;27971;53.902;9.118;2022-11-10T10:17:00;102032.0;;;22.29;29.25
41383;BME280;27971;53.902;9.118;2022-11-10T10:19:10;102028.0;;;22.26;29.19
41383;BME280;27971;53.902;9.118;2022-11-10T10:21:14;102029.0;;;22.47;28.99
41383;BME280;27971;53.902;9.118;2022-11-10T10:23:13;102036.0;;;23.63;28.04
41383;BME280;27971;53.902;9.118;2022-11-10T10:25:12;102048.0;;;24.92;26.82
41383;BME280;27971;53.902;9.118;2022-11-10T10:27:17;102049.0;;;25.52;26.19
41383;BME280;27971;53.902;9.118;2022-11-10T10:29:17;102051.0;;;25.14;26.44
41383;BME280;27971;53.902;9.118;2022-11-10T10:31:18;102054.0;;;25.16;26.35
41383;BME280;27971;53.902;9.118;2022-11-10T10:33:20;102052.0;;;23.9;27.38
41383;BME280;27971;53.902;9.118;2022-11-10T10:35:22;102050.0;;;23.35;27.91
41383;BME280;27971;53.902;9.118;2022-11-10T10:37:26;102051.0;;;22.86;28.4
41383;BME280;27971;53.902;9.118;2022-11-10T10:39:33;102052.0;;;22.85;28.44
41383;BME280;27971;53.902;9.118;2022-11-10T10:41:31;102053.0;;;23.66;27.86
41383;BME280;27971;53.902;9.118;2022-11-10T10:43:33;102053.0;;;22.73;28.67
41383;BME280;27971;53.902;9.118;2022-11-10T10:45:35;102057.0;;;23.45;28.02
41383;BME280;27971;53.902;9.118;2022-11-10T10:47:38;102059.0;;;25.03;26.5
41383;BME280;27971;53.902;9.118;2022-11-10T10:49:40;102064.0;;;24.73;26.77
41383;BME280;27971;53.902;9.118;2022-11-10T10:51:42;102061.0;;;23.66;27.79
41383;BME280;27971;53.902;9.118;2022-11-10T10:53:46;102058.0;;;23.74;27.79
41383;BME280;27971;53.902;9.118;2022-11-10T10:55:53;102055.0;;;23.34;28.08